createdAt,value
2019-04-04T00:00:28.318Z,36.70
2019-04-04T00:02:56.757Z,35.80
2019-04-04T00:05:26.201Z,31.35
2019-04-04T00:07:54.800Z,28.67
2019-04-04T00:10:23.232Z,28.30
2019-04-04T00:12:51.676Z,27.60
2019-04-04T00:15:20.109Z,24.95
2019-04-04T00:17:48.628Z,25.37
2019-04-04T00:20:17.052Z,22.62
2019-04-04T00:22:45.495Z,23.70
2019-04-04T00:25:14.213Z,24.20
2019-04-04T00:27:44.010Z,23.20
2019-04-04T00:30:12.780Z,20.77
2019-04-04T00:32:41.546Z,19.55
2019-04-04T00:35:10.045Z,18.40
2019-04-04T00:37:40.987Z,17.87
2019-04-04T00:40:10.922Z,19.85
2019-04-04T00:42:39.084Z,19.98
2019-04-04T00:45:08.079Z,19.87
2019-04-04T00:47:36.536Z,19.70
2019-04-04T00:50:07.005Z,19.55
2019-04-04T00:52:35.504Z,18.40
2019-04-04T00:55:05.488Z,18.77
2019-04-04T00:57:33.913Z,18.67
2019-04-04T01:00:02.341Z,18.37
2019-04-04T01:02:30.789Z,18.48
2019-04-04T01:05:01.340Z,18.65
2019-04-04T01:07:29.398Z,17.15
2019-04-04T01:09:57.846Z,17.40
2019-04-04T01:12:26.266Z,16.48
2019-04-04T01:14:54.696Z,16.10
2019-04-04T01:17:23.153Z,15.80
2019-04-04T01:19:51.568Z,16.90
2019-04-04T01:22:19.993Z,16.02
2019-04-04T01:24:49.927Z,15.60
2019-04-04T01:27:18.359Z,15.90
2019-04-04T01:29:46.781Z,16.00
2019-04-04T01:32:17.074Z,16.55
2019-04-04T01:34:45.452Z,15.03
2019-04-04T01:37:13.890Z,15.68
2019-04-04T01:39:42.583Z,14.73
2019-04-04T01:42:11.010Z,15.28
2019-04-04T01:44:40.126Z,15.50
2019-04-04T01:47:09.622Z,15.23
2019-04-04T01:49:38.037Z,15.28
2019-04-04T01:52:06.483Z,15.78
2019-04-04T01:54:34.942Z,16.15
2019-04-04T01:57:03.369Z,15.60
2019-04-04T01:59:31.800Z,14.40
2019-04-04T02:02:00.254Z,14.93
2019-04-04T02:04:28.693Z,14.15
2019-04-04T02:06:59.004Z,14.25
2019-04-04T02:09:27.298Z,13.60
2019-04-04T02:11:55.725Z,14.45
2019-04-04T02:14:24.169Z,14.00
2019-04-04T02:16:52.645Z,14.85
2019-04-04T02:19:22.876Z,15.60
2019-04-04T02:21:51.274Z,15.83
2019-04-04T02:24:19.724Z,15.75
2019-04-04T02:26:48.145Z,15.40
2019-04-04T02:29:16.584Z,15.80
2019-04-04T02:31:46.667Z,16.57
2019-04-04T02:34:15.393Z,16.42
2019-04-04T02:36:43.827Z,16.77
2019-04-04T02:39:15.499Z,17.70
2019-04-04T02:41:47.711Z,17.07
2019-04-04T02:44:14.170Z,17.77
2019-04-04T02:46:45.508Z,18.05
2019-04-04T02:49:12.769Z,18.48
2019-04-04T02:51:41.538Z,19.10
2019-04-04T02:54:10.179Z,17.97
2019-04-04T02:56:38.687Z,18.70
2019-04-04T02:59:07.192Z,18.40
2019-04-04T03:01:35.701Z,18.85
2019-04-04T03:04:04.211Z,18.50
2019-04-04T03:06:32.625Z,18.67
2019-04-04T03:09:01.093Z,20.10
2019-04-04T03:11:29.525Z,19.67
2019-04-04T03:13:58.023Z,19.52
2019-04-04T03:16:26.488Z,20.05
2019-04-04T03:18:54.919Z,20.80
2019-04-04T03:21:23.731Z,21.42
2019-04-04T03:23:52.390Z,20.97
2019-04-04T03:26:20.995Z,20.17
2019-04-04T03:28:49.422Z,21.00
2019-04-04T03:31:17.891Z,22.40
2019-04-04T03:33:46.314Z,22.00
2019-04-04T03:36:14.744Z,22.70
2019-04-04T03:38:46.081Z,23.57
2019-04-04T03:41:13.332Z,23.27
2019-04-04T03:43:41.757Z,24.35
2019-04-04T03:46:10.223Z,23.93
2019-04-04T03:48:38.641Z,24.43
2019-04-04T03:51:07.069Z,23.57
2019-04-04T03:53:36.417Z,25.30
2019-04-04T03:56:04.909Z,25.35
2019-04-04T03:58:33.342Z,26.80
2019-04-04T04:01:01.799Z,28.12
2019-04-04T04:03:30.224Z,25.70
2019-04-04T04:05:58.648Z,26.57
2019-04-04T04:08:27.095Z,26.85
2019-04-04T04:10:55.550Z,27.48
2019-04-04T04:13:23.989Z,29.65
2019-04-04T04:15:52.501Z,29.52
2019-04-04T04:18:21.736Z,28.90
2019-04-04T04:20:50.349Z,26.30
2019-04-04T04:23:22.765Z,25.80
2019-04-04T04:25:48.959Z,26.35
2019-04-04T04:28:19.731Z,24.23
2019-04-04T04:30:47.564Z,24.18
2019-04-04T04:33:16.069Z,23.32
2019-04-04T04:35:44.506Z,23.70
2019-04-04T04:57:57.784Z,23.98
2019-04-04T05:00:27.945Z,24.57
2019-04-04T05:02:56.598Z,24.47
2019-04-04T05:05:25.128Z,24.85
2019-04-04T05:07:54.857Z,24.40
2019-04-04T05:10:23.569Z,25.57
2019-04-04T05:12:53.211Z,27.50
2019-04-04T05:15:22.175Z,27.13
2019-04-04T05:17:50.609Z,26.43
2019-04-04T05:20:19.135Z,28.90
2019-04-04T05:22:47.584Z,28.47
2019-04-04T05:25:16.027Z,28.23
2019-04-04T05:27:44.605Z,26.97
2019-04-04T05:30:15.930Z,26.68
2019-04-04T05:32:43.375Z,26.87
2019-04-04T05:35:14.842Z,27.42
2019-04-04T05:37:42.015Z,26.42
2019-04-04T05:40:10.950Z,28.07
2019-04-04T05:42:39.433Z,27.15
2019-04-04T05:45:08.890Z,27.20
2019-04-04T05:47:37.329Z,28.30
2019-04-04T05:50:11.038Z,29.02
2019-04-04T05:52:38.981Z,28.15
2019-04-04T05:55:09.963Z,27.67
2019-04-04T05:57:37.722Z,29.17
2019-04-04T06:00:09.954Z,27.87
2019-04-04T06:02:38.434Z,28.62
2019-04-04T06:05:15.300Z,29.00
2019-04-04T06:07:43.797Z,29.07
2019-04-04T06:10:12.337Z,29.05
2019-04-04T06:12:40.946Z,28.40
2019-04-04T06:15:09.608Z,29.90
2019-04-04T06:17:39.295Z,29.45
2019-04-04T06:20:09.026Z,29.00
2019-04-04T06:22:37.486Z,28.55
2019-04-04T06:25:06.730Z,30.43
2019-04-04T06:27:35.189Z,29.40
2019-04-04T06:30:04.862Z,28.90
2019-04-04T06:32:33.311Z,29.65
2019-04-04T06:35:01.994Z,29.20
2019-04-04T06:37:30.477Z,28.90
2019-04-04T06:39:59.529Z,28.23
2019-04-04T06:42:28.044Z,28.00
2019-04-04T06:44:56.472Z,27.55
2019-04-04T06:47:25.545Z,25.43
2019-04-04T06:49:54.745Z,22.70
2019-04-04T06:52:23.529Z,23.60
2019-04-04T06:54:52.117Z,23.05
2019-04-04T06:57:20.697Z,22.05
2019-04-04T06:59:51.072Z,20.82
2019-04-04T07:02:19.272Z,20.12
2019-04-04T07:04:47.754Z,19.90
2019-04-04T07:07:16.174Z,20.15
2019-04-04T07:09:44.638Z,19.62
2019-04-04T07:12:22.373Z,18.25
2019-04-04T07:14:46.303Z,19.25
2019-04-04T07:17:16.214Z,18.00
2019-04-04T07:19:46.008Z,18.05
2019-04-04T07:22:13.821Z,17.80
2019-04-04T07:24:42.404Z,17.70
2019-04-04T07:27:10.861Z,16.93
2019-04-04T07:29:39.583Z,17.30
2019-04-04T07:32:09.499Z,17.02
2019-04-04T07:34:38.956Z,16.50
2019-04-04T07:37:09.028Z,15.88
2019-04-04T07:39:37.514Z,17.67
2019-04-04T07:42:05.977Z,16.35
2019-04-04T07:44:34.399Z,15.98
2019-04-04T07:47:02.854Z,16.23
2019-04-04T07:49:31.789Z,16.12
2019-04-04T07:52:01.972Z,16.27
2019-04-04T07:54:32.025Z,16.12
2019-04-04T07:57:00.638Z,14.68
2019-04-04T07:59:31.083Z,14.03
2019-04-04T08:01:59.234Z,13.15
2019-04-04T08:04:27.980Z,12.90
2019-04-04T08:06:56.415Z,12.33
2019-04-04T08:09:26.296Z,13.00
2019-04-04T08:11:54.942Z,12.40
2019-04-04T08:14:23.376Z,12.78
2019-04-04T08:16:51.804Z,14.93
2019-04-04T08:19:20.253Z,14.55
2019-04-04T08:21:48.693Z,14.55
2019-04-04T08:24:17.145Z,14.70
2019-04-04T08:26:45.594Z,14.45
2019-04-04T08:29:14.032Z,15.43
2019-04-04T08:31:42.461Z,15.25
2019-04-04T08:34:10.978Z,14.70
2019-04-04T08:36:40.322Z,15.57
2019-04-04T08:39:10.483Z,15.10
2019-04-04T08:41:38.952Z,14.87
2019-04-04T08:44:07.392Z,14.90
2019-04-04T08:46:35.815Z,15.65
2019-04-04T08:49:04.452Z,13.43
2019-04-04T08:51:33.009Z,15.80
2019-04-04T08:54:01.501Z,13.88
2019-04-04T08:56:29.957Z,13.30
2019-04-04T08:58:58.419Z,13.58
2019-04-04T09:01:26.842Z,13.32
2019-04-04T09:03:55.525Z,13.98
2019-04-04T09:06:23.958Z,13.20
2019-04-04T09:08:52.429Z,14.07
2019-04-04T09:11:21.578Z,13.15
2019-04-04T09:13:50.005Z,13.53
2019-04-04T09:16:18.435Z,13.87
2019-04-04T09:18:46.905Z,14.35
2019-04-04T09:21:15.605Z,14.90
2019-04-04T09:23:44.340Z,14.70
2019-04-04T09:26:12.875Z,14.80
2019-04-04T09:28:41.314Z,16.27
2019-04-04T09:31:09.750Z,14.50
2019-04-04T09:33:38.211Z,13.58
2019-04-04T09:36:06.726Z,15.30
2019-04-04T09:38:35.472Z,15.28
2019-04-04T09:41:04.423Z,14.90
2019-04-04T09:43:32.903Z,15.18
2019-04-04T09:46:01.341Z,15.20
2019-04-04T09:48:29.888Z,14.30
2019-04-04T09:50:58.382Z,14.70
2019-04-04T09:53:26.844Z,15.48
2019-04-04T09:55:55.330Z,15.20
2019-04-04T09:58:23.779Z,14.75
2019-04-04T10:00:52.223Z,14.80
2019-04-04T10:03:20.694Z,14.53
2019-04-04T10:05:49.136Z,15.38
2019-04-04T10:08:17.922Z,15.13
2019-04-04T10:10:46.441Z,14.70
2019-04-04T10:13:14.886Z,14.78
2019-04-04T10:15:43.873Z,14.30
2019-04-04T10:18:12.352Z,14.60
2019-04-04T10:20:40.804Z,13.55
2019-04-04T10:23:09.257Z,13.70
2019-04-04T10:25:37.713Z,13.50
2019-04-04T10:28:06.141Z,13.25
2019-04-04T10:30:34.583Z,13.62
2019-04-04T10:33:03.065Z,15.30
2019-04-04T10:35:31.496Z,13.30
2019-04-04T10:37:59.937Z,13.40
2019-04-04T10:40:28.381Z,13.25
2019-04-04T10:42:56.827Z,13.18
2019-04-04T10:45:25.288Z,12.70
2019-04-04T10:47:53.875Z,12.43
2019-04-04T10:50:22.442Z,12.95
2019-04-04T10:52:50.932Z,12.18
2019-04-04T10:55:19.465Z,12.43
2019-04-04T10:57:47.942Z,13.68
2019-04-04T11:00:16.846Z,13.65
2019-04-04T11:02:48.023Z,12.80
2019-04-04T11:05:16.519Z,13.55
2019-04-04T11:07:45.229Z,13.55
2019-04-04T11:10:14.189Z,13.60
2019-04-04T11:12:42.640Z,13.05
2019-04-04T11:15:11.136Z,13.70
2019-04-04T11:17:39.684Z,13.32
2019-04-04T11:20:08.341Z,12.68
2019-04-04T11:22:36.792Z,13.88
2019-04-04T11:25:06.018Z,13.60
2019-04-04T11:27:34.790Z,13.80
2019-04-04T11:30:05.228Z,13.25
2019-04-04T11:32:33.775Z,15.23
2019-04-04T11:35:02.196Z,14.25
2019-04-04T11:37:30.628Z,14.00
2019-04-04T11:39:59.371Z,15.58
2019-04-04T11:42:27.841Z,15.00
2019-04-04T11:44:56.285Z,14.33
2019-04-04T11:47:24.882Z,14.90
2019-04-04T11:49:53.330Z,14.33
2019-04-04T11:52:21.745Z,15.30
2019-04-04T11:54:54.585Z,15.50
2019-04-04T11:57:24.034Z,17.02
2019-04-04T11:59:52.557Z,16.48
2019-04-04T12:02:21.184Z,17.12
2019-04-04T12:04:49.622Z,17.62
2019-04-04T12:07:18.957Z,16.95
2019-04-04T12:09:48.574Z,15.78
2019-04-04T12:12:17.058Z,16.37
2019-04-04T12:14:45.520Z,17.82
2019-04-04T12:17:14.672Z,16.40
2019-04-04T12:19:43.252Z,16.10
2019-04-04T12:22:12.081Z,16.30
2019-04-04T12:24:40.626Z,17.02
2019-04-04T12:27:09.078Z,17.20
2019-04-04T12:29:37.576Z,17.20
2019-04-04T12:32:06.077Z,15.70
2019-04-04T12:34:34.545Z,16.80
2019-04-04T12:37:03.917Z,16.12
2019-04-04T12:39:32.417Z,16.12
2019-04-04T12:42:00.898Z,17.17
2019-04-04T12:44:29.335Z,16.70
2019-04-04T12:46:57.797Z,17.33
2019-04-04T12:49:26.480Z,17.10
2019-04-04T12:51:54.983Z,16.85
2019-04-04T12:54:28.555Z,17.52
2019-04-04T12:56:57.076Z,16.45
2019-04-04T12:59:25.543Z,16.65
2019-04-04T13:01:54.132Z,16.42
2019-04-04T13:04:31.048Z,17.32
2019-04-04T13:06:52.763Z,16.05
2019-04-04T13:09:22.122Z,16.57
2019-04-04T13:11:50.583Z,15.90
2019-04-04T13:14:19.074Z,16.57
2019-04-04T13:16:47.558Z,16.10
2019-04-04T13:19:16.005Z,16.55
2019-04-04T13:21:44.470Z,17.07
2019-04-04T13:24:12.956Z,17.30
2019-04-04T13:26:41.381Z,17.32
2019-04-04T13:29:09.833Z,17.35
2019-04-04T13:31:39.187Z,17.98
2019-04-04T13:34:07.687Z,18.13
2019-04-04T13:36:36.856Z,18.52
2019-04-04T13:39:08.758Z,17.87
2019-04-04T13:41:38.698Z,17.92
2019-04-04T13:44:07.138Z,18.67
2019-04-04T13:46:35.675Z,17.80
2019-04-04T13:49:04.126Z,18.37
2019-04-04T13:51:32.623Z,18.93
2019-04-04T13:54:01.070Z,18.70
2019-04-04T13:56:29.522Z,18.15
2019-04-04T13:59:01.214Z,19.65
2019-04-04T14:01:28.141Z,18.40
2019-04-04T14:03:56.628Z,17.90
2019-04-04T14:06:25.094Z,18.67
2019-04-04T14:08:53.544Z,17.57
2019-04-04T14:11:22.045Z,17.65
2019-04-04T14:13:50.468Z,17.77
2019-04-04T14:16:18.954Z,16.65
2019-04-04T14:18:47.381Z,15.50
2019-04-04T14:21:15.827Z,15.65
2019-04-04T14:23:45.394Z,15.20
2019-04-04T14:26:13.914Z,15.38
2019-04-04T14:28:42.355Z,16.05
2019-04-04T14:31:10.801Z,16.87
2019-04-04T14:33:39.499Z,17.05
2019-04-04T14:36:07.998Z,16.37
2019-04-04T14:38:36.533Z,17.10
2019-04-04T14:41:11.291Z,17.02
2019-04-04T14:43:35.110Z,18.35
2019-04-04T14:46:03.558Z,18.80
2019-04-04T14:48:31.984Z,21.73
2019-04-04T14:51:00.433Z,19.50
2019-04-04T14:53:28.905Z,20.20
2019-04-04T14:55:57.360Z,19.37
2019-04-04T14:58:26.673Z,19.25
2019-04-04T15:00:55.181Z,18.80
2019-04-04T15:03:23.886Z,18.60
2019-04-04T15:05:52.350Z,20.57
2019-04-04T15:08:20.817Z,23.27
2019-04-04T15:10:49.316Z,23.22
2019-04-04T15:13:17.738Z,23.87
2019-04-04T15:16:11.274Z,24.90
2019-04-04T15:18:39.731Z,26.45
2019-04-04T15:21:09.193Z,24.00
2019-04-04T15:23:37.719Z,23.53
2019-04-04T15:26:06.273Z,22.60
2019-04-04T15:28:34.731Z,23.47
2019-04-04T15:31:04.323Z,23.55
2019-04-04T15:33:32.751Z,22.98
2019-04-04T15:36:01.346Z,22.48
2019-04-04T15:38:29.801Z,23.05
2019-04-04T15:40:58.244Z,21.40
2019-04-04T15:43:26.660Z,21.10
2019-04-04T15:45:55.118Z,21.57
2019-04-04T15:48:23.548Z,20.23
2019-04-04T15:50:51.994Z,21.90
2019-04-04T15:53:20.525Z,22.07
2019-04-04T15:55:49.080Z,21.30
2019-04-04T15:58:17.589Z,21.25
2019-04-04T16:00:46.059Z,21.55
2019-04-04T16:03:14.498Z,21.82
2019-04-04T16:05:42.979Z,21.30
2019-04-04T16:08:11.525Z,22.80
2019-04-04T16:10:40.218Z,23.43
2019-04-04T16:13:08.670Z,21.67
2019-04-04T16:15:37.230Z,21.20
2019-04-04T16:18:05.738Z,21.57
2019-04-04T16:20:34.173Z,21.68
2019-04-04T16:23:02.682Z,21.40
2019-04-04T16:25:31.366Z,21.85
2019-04-04T16:27:59.825Z,22.30
2019-04-04T16:30:28.285Z,21.82
2019-04-04T16:32:56.727Z,22.27
2019-04-04T16:35:25.171Z,23.50
2019-04-04T16:37:53.643Z,23.18
2019-04-04T16:40:22.242Z,23.12
2019-04-04T16:42:50.736Z,22.20
2019-04-04T16:45:19.217Z,23.57
2019-04-04T16:47:47.798Z,22.55
2019-04-04T16:50:16.465Z,21.23
2019-04-04T16:52:45.024Z,16.95
2019-04-04T16:55:13.606Z,16.17
2019-04-04T16:57:43.470Z,15.23
2019-04-04T17:00:13.490Z,16.02
2019-04-04T17:02:42.518Z,14.80
2019-04-04T17:05:11.381Z,15.30
2019-04-04T17:07:39.924Z,13.98
2019-04-04T17:10:09.908Z,15.00
2019-04-04T17:12:38.370Z,14.50
2019-04-04T17:15:08.125Z,14.25
2019-04-04T17:17:37.905Z,14.58
2019-04-04T17:20:07.273Z,14.30
2019-04-04T17:22:35.736Z,14.78
2019-04-04T17:25:05.921Z,15.03
2019-04-04T17:27:37.040Z,15.10
2019-04-04T17:30:07.289Z,15.20
2019-04-04T17:32:36.164Z,14.25
2019-04-04T17:35:09.573Z,14.63
2019-04-04T17:37:38.189Z,14.40
2019-04-04T17:40:07.469Z,14.33
2019-04-04T17:42:36.593Z,14.30
2019-04-04T17:45:09.416Z,14.10
2019-04-04T17:47:38.543Z,14.00
2019-04-04T17:50:11.989Z,13.63
2019-04-04T17:52:40.619Z,13.98
2019-04-04T17:55:09.508Z,12.70
2019-04-04T17:57:38.448Z,13.17
2019-04-04T18:00:08.249Z,13.78
2019-04-04T18:02:36.772Z,14.10
2019-04-04T18:05:08.460Z,14.73
2019-04-04T18:07:37.023Z,13.13
2019-04-04T18:10:10.713Z,13.55
2019-04-04T18:12:42.358Z,14.20
2019-04-04T18:15:11.331Z,14.10
2019-04-04T18:17:39.787Z,14.38
2019-04-04T18:20:09.386Z,15.20
2019-04-04T18:22:37.816Z,14.73
2019-04-04T18:25:07.199Z,15.05
2019-04-04T18:27:35.704Z,14.58
2019-04-04T18:30:07.679Z,15.20
2019-04-04T18:32:36.098Z,15.87
2019-04-04T18:35:06.430Z,14.33
2019-04-04T18:37:34.888Z,14.80
2019-04-04T18:40:05.264Z,15.25
2019-04-04T18:42:34.092Z,14.83
2019-04-04T18:45:02.517Z,14.60
2019-04-04T18:47:32.821Z,14.50
2019-04-04T18:50:01.314Z,14.73
2019-04-04T18:52:29.745Z,15.50
2019-04-04T18:54:58.637Z,15.60
2019-04-04T18:57:27.081Z,16.02
2019-04-04T18:59:55.547Z,16.05
2019-04-04T19:02:24.014Z,16.60
2019-04-04T19:04:52.493Z,16.60
2019-04-04T19:07:20.961Z,17.30
2019-04-04T19:09:49.388Z,18.77
2019-04-04T19:12:17.910Z,18.67
2019-04-04T19:14:46.344Z,17.05
2019-04-04T19:17:14.778Z,17.20
2019-04-04T19:19:43.257Z,18.67
2019-04-04T19:22:11.705Z,18.85
2019-04-04T19:24:40.121Z,18.90
2019-04-04T19:27:08.644Z,19.12
2019-04-04T19:29:37.082Z,19.67
2019-04-04T19:32:05.769Z,20.17
2019-04-04T19:34:34.200Z,21.60
2019-04-04T19:37:02.627Z,20.00
2019-04-04T19:39:31.058Z,20.90
2019-04-04T19:41:59.504Z,22.70
2019-04-04T19:44:28.190Z,22.60
2019-04-04T19:46:56.633Z,20.65
2019-04-04T19:49:25.094Z,21.82
2019-04-04T19:51:53.521Z,22.32
2019-04-04T19:54:21.950Z,22.90
2019-04-04T19:56:50.422Z,23.40
2019-04-04T19:59:18.838Z,23.50
2019-04-04T20:01:47.276Z,22.30
2019-04-04T20:04:15.726Z,23.83
2019-04-04T20:06:44.181Z,25.10
2019-04-04T20:09:12.626Z,24.35
2019-04-04T20:11:41.090Z,24.37
2019-04-04T20:14:10.404Z,24.23
2019-04-04T20:16:39.103Z,25.30
2019-04-04T20:19:07.554Z,25.62
2019-04-04T20:21:35.991Z,25.60
2019-04-04T20:24:04.498Z,24.80
2019-04-04T20:26:33.023Z,26.95
2019-04-04T20:29:01.462Z,26.55
2019-04-04T20:31:29.898Z,26.62
2019-04-04T20:34:01.994Z,25.90
2019-04-04T20:36:28.485Z,26.70
2019-04-04T20:38:57.010Z,27.20
2019-04-04T20:41:25.529Z,28.67
2019-04-04T20:43:53.969Z,30.60
2019-04-04T20:46:22.453Z,30.08
2019-04-04T20:48:50.921Z,28.75
2019-04-04T20:51:19.388Z,30.30
2019-04-04T20:53:47.897Z,30.00
2019-04-04T20:56:16.341Z,31.17
2019-04-04T20:58:44.772Z,31.77
2019-04-04T21:01:13.200Z,32.38
2019-04-04T21:03:41.666Z,32.10
2019-04-04T21:06:10.104Z,33.58
2019-04-04T21:08:38.537Z,33.67
2019-04-04T21:11:07.356Z,34.00
2019-04-04T21:13:35.823Z,34.45
2019-04-04T21:16:04.246Z,35.67
2019-04-04T21:18:32.717Z,35.75
2019-04-04T21:21:01.149Z,34.53
2019-04-04T21:23:29.674Z,35.35
2019-04-04T21:25:58.124Z,34.98
2019-04-04T21:28:26.551Z,35.68
2019-04-04T21:30:55.057Z,36.70
2019-04-04T21:33:23.527Z,35.47
2019-04-04T21:35:51.950Z,36.25
2019-04-04T21:38:20.396Z,37.50
2019-04-04T21:40:48.906Z,38.02
2019-04-04T21:43:17.453Z,37.93
2019-04-04T21:45:46.757Z,39.35
2019-04-04T21:48:15.203Z,39.63
2019-04-04T21:50:43.624Z,40.97
2019-04-04T21:53:12.057Z,40.05
2019-04-04T21:55:40.506Z,41.18
2019-04-04T21:58:08.951Z,40.85
2019-04-04T22:00:39.191Z,41.65
2019-04-04T22:03:07.638Z,41.30
2019-04-04T22:05:36.080Z,41.30
2019-04-04T22:08:04.663Z,39.90
2019-04-04T22:10:33.121Z,39.67
2019-04-04T22:13:02.125Z,39.45
2019-04-04T22:15:30.553Z,40.50
2019-04-04T22:17:59.001Z,39.75
2019-04-04T22:20:27.423Z,39.73
2019-04-04T22:22:55.849Z,37.78
2019-04-04T22:25:24.314Z,36.85
2019-04-04T22:27:52.744Z,36.30
2019-04-04T22:30:21.215Z,36.85
2019-04-04T22:32:49.754Z,35.70
2019-04-04T22:35:18.212Z,35.97
2019-04-04T22:37:46.653Z,35.68
2019-04-04T22:40:15.162Z,36.42
2019-04-04T22:42:43.585Z,35.28
2019-04-04T22:45:12.263Z,37.28
2019-04-04T22:47:40.725Z,39.98
2019-04-04T22:50:09.215Z,41.10
2019-04-04T22:52:37.911Z,40.20
2019-04-04T22:55:06.659Z,42.83
2019-04-04T22:57:35.081Z,43.05
2019-04-04T23:00:05.036Z,43.60
2019-04-04T23:02:33.497Z,44.88
2019-04-04T23:05:02.173Z,47.50
2019-04-04T23:07:30.600Z,51.25
2019-04-04T23:09:59.046Z,45.75
2019-04-04T23:12:27.470Z,46.18
2019-04-04T23:14:55.897Z,51.48
2019-04-04T23:17:24.352Z,52.83
2019-04-04T23:19:53.045Z,54.53
2019-04-04T23:22:21.472Z,55.38
2019-04-04T23:24:49.927Z,56.37
2019-04-04T23:27:18.358Z,55.78
2019-04-04T23:29:46.777Z,58.30
2019-04-04T23:32:15.229Z,58.28
2019-04-04T23:34:43.689Z,61.00
2019-04-04T23:37:12.125Z,61.85
2019-04-04T23:39:40.569Z,62.88
2019-04-04T23:42:09.240Z,66.97
2019-04-04T23:44:37.679Z,67.65
2019-04-04T23:47:06.213Z,70.80
2019-04-04T23:49:34.649Z,70.55
2019-04-04T23:52:03.096Z,72.25
2019-04-04T23:54:31.601Z,77.10
2019-04-04T23:57:00.025Z,78.95
2019-04-04T23:59:28.462Z,78.30
